Time;durP1;ratioP1;P1;durP2;ratioP2;P2;SDS_P1;SDS_P2;PMS_P1;PMS_P2;Temp;Humidity;BMP_temperature;BMP_pressure;BME280_temperature;BME280_humidity;BME280_pressure;Samples;Min_cycle;Max_cycle;Signal;HPM_P1;HPM_P2
2023/01/07 00:01:35;;;;;;;2.73;2.63;;;;;;;9.10;99.74;100599.66;5006467;28;20233;-81
2023/01/07 00:04:02;;;;;;;3.07;2.87;;;;;;;9.10;100.00;100577.06;5008664;28;20257;-80
2023/01/07 00:06:31;;;;;;;3.13;2.83;;;;;;;9.09;100.00;100567.53;5006325;28;20276;-79
2023/01/07 00:08:58;;;;;;;2.70;2.50;;;;;;;9.05;100.00;100542.41;5008362;28;20202;-80
2023/01/07 00:11:27;;;;;;;2.53;2.33;;;;;;;9.02;100.00;100512.94;5007660;28;20290;-81
2023/01/07 00:13:56;;;;;;;2.40;2.23;;;;;;;9.10;100.00;100506.78;5009373;28;20616;-81
2023/01/07 00:16:25;;;;;;;2.13;2.03;;;;;;;9.15;100.00;100501.50;5017456;28;20218;-81
2023/01/07 00:18:53;;;;;;;1.73;1.63;;;;;;;9.18;100.00;100501.47;5022821;28;20264;-81
2023/01/07 00:21:21;;;;;;;2.23;2.10;;;;;;;9.17;100.00;100504.94;5021742;28;20557;-81
2023/01/07 00:23:48;;;;;;;1.90;1.80;;;;;;;9.23;100.00;100498.81;5014089;28;20210;-79
2023/01/07 00:26:16;;;;;;;1.87;1.77;;;;;;;9.25;100.00;100495.28;5022135;28;20288;-79
2023/01/07 00:28:45;;;;;;;1.87;1.77;;;;;;;9.20;100.00;100488.44;5022509;28;20211;-81
2023/01/07 00:31:14;;;;;;;1.97;1.87;;;;;;;9.21;100.00;100474.53;5021506;28;20206;-80
2023/01/07 00:33:48;;;;;;;1.60;1.50;;;;;;;9.23;100.00;100485.78;5022053;28;20237;-79
2023/01/07 00:36:15;;;;;;;1.30;1.30;;;;;;;9.28;100.00;100477.03;5021471;28;20241;-80
2023/01/07 00:38:41;;;;;;;1.80;1.70;;;;;;;9.20;100.00;100483.22;5021386;28;20272;-81
2023/01/07 00:41:09;;;;;;;1.50;1.40;;;;;;;9.27;100.00;100466.63;5021895;28;20217;-80
2023/01/07 00:43:35;;;;;;;1.50;1.40;;;;;;;9.31;100.00;100471.75;5022430;28;20206;-79
2023/01/07 00:46:03;;;;;;;1.33;1.23;;;;;;;9.34;100.00;100478.69;5022391;28;20234;-79
2023/01/07 00:48:30;;;;;;;1.80;1.70;;;;;;;9.31;100.00;100479.56;5021421;28;20628;-79
2023/01/07 00:50:56;;;;;;;1.27;1.23;;;;;;;9.32;100.00;100475.25;5021578;28;20209;-79
2023/01/07 00:53:23;;;;;;;1.17;1.17;;;;;;;9.36;100.00;100471.72;5020916;28;20365;-81
2023/01/07 00:55:51;;;;;;;1.37;1.33;;;;;;;9.29;100.00;100464.84;5021486;28;20316;-81
2023/01/07 00:58:21;;;;;;;1.30;1.20;;;;;;;9.34;100.00;100470.88;5021860;28;20218;-81
2023/01/07 01:00:47;;;;;;;1.23;1.20;;;;;;;9.30;100.00;100462.25;5022000;28;20207;-79
2023/01/07 01:03:15;;;;;;;1.20;1.10;;;;;;;9.36;100.00;100447.44;5021913;28;20609;-81
2023/01/07 01:05:42;;;;;;;1.20;1.10;;;;;;;9.33;100.00;100448.31;5021146;28;20584;-82
2023/01/07 01:08:10;;;;;;;1.30;1.20;;;;;;;9.39;100.00;100453.44;5020967;28;20210;-79
2023/01/07 01:10:36;;;;;;;0.90;0.90;;;;;;;9.40;100.00;100457.78;5020279;28;20214;-80
2023/01/07 01:13:03;;;;;;;0.83;0.83;;;;;;;9.41;100.00;100450.81;5020091;28;20226;-80
2023/01/07 01:15:30;;;;;;;0.93;0.93;;;;;;;9.47;100.00;100448.97;5021130;28;20207;-79
2023/01/07 01:17:56;;;;;;;1.00;1.00;;;;;;;9.50;100.00;100456.75;5021154;28;20559;-80
2023/01/07 01:20:24;;;;;;;1.37;1.27;;;;;;;9.50;100.00;100454.16;5020946;28;20234;-79
2023/01/07 01:22:50;;;;;;;1.20;1.10;;;;;;;9.54;100.00;100461.03;5017749;28;20227;-81
2023/01/07 01:25:17;;;;;;;0.93;0.93;;;;;;;9.57;100.00;100467.09;5000943;28;20284;-80
2023/01/07 01:27:43;;;;;;;1.03;1.03;;;;;;;9.50;100.00;100468.94;5001081;28;20238;-81
2023/01/07 01:30:10;;;;;;;1.00;1.00;;;;;;;9.33;100.00;100472.59;5033524;28;20202;-79
2023/01/07 01:32:37;;;;;;;1.37;1.10;;;;;;;9.44;100.00;100467.25;5040590;28;20222;-79
2023/01/07 01:35:03;;;;;;;1.00;1.00;;;;;;;9.30;100.00;100477.00;5040987;28;20209;-80
2023/01/07 01:37:31;;;;;;;1.20;1.10;;;;;;;9.33;100.00;100475.22;5040596;28;20234;-82
2023/01/07 01:39:57;;;;;;;1.30;1.20;;;;;;;9.26;100.00;100481.41;5040895;28;20206;-81
2023/01/07 01:42:25;;;;;;;1.20;1.20;;;;;;;9.35;100.00;100480.41;5039931;28;20228;-82
2023/01/07 01:44:53;;;;;;;1.10;1.10;;;;;;;9.33;100.00;100480.41;5040328;28;20205;-81
2023/01/07 01:47:25;;;;;;;1.63;1.43;;;;;;;9.39;100.00;100476.88;5040390;28;20233;-81
2023/01/07 01:49:57;;;;;;;1.00;1.00;;;;;;;9.39;100.00;100484.69;5040357;28;20210;-80
2023/01/07 01:52:29;;;;;;;1.00;1.00;;;;;;;9.40;100.00;100488.19;5030356;28;20292;-80
2023/01/07 01:55:00;;;;;;;1.13;0.90;;;;;;;9.40;100.00;100496.00;5012195;28;20207;-80
2023/01/07 01:57:28;;;;;;;1.03;1.00;;;;;;;9.36;100.00;100494.31;5019889;28;20235;-80
2023/01/07 01:59:56;;;;;;;2.83;1.30;;;;;;;9.27;100.00;100503.09;5020155;28;20207;-79
2023/01/07 02:02:29;;;;;;;0.90;0.90;;;;;;;9.19;100.00;100508.38;5020593;28;20237;-79
2023/01/07 02:04:56;;;;;;;1.00;1.00;;;;;;;9.24;100.00;100511.81;5020957;28;20206;-80
2023/01/07 02:07:22;;;;;;;1.10;1.10;;;;;;;9.17;100.00;100504.94;5021042;28;20223;-81
2023/01/07 02:09:54;;;;;;;1.33;1.03;;;;;;;9.24;100.00;100505.75;5020863;28;20207;-82
2023/01/07 02:12:30;;;;;;;0.97;0.97;;;;;;;9.18;100.00;100491.06;5019541;28;20234;-80
2023/01/07 02:15:10;;;;;;;1.13;1.10;;;;;;;9.21;100.00;100495.34;5020820;28;20214;-80
2023/01/07 02:17:57;;;;;;;1.20;1.10;;;;;;;9.14;100.00;100495.44;5020301;28;20235;-80
2023/01/07 02:20:46;;;;;;;0.90;0.90;;;;;;;9.29;100.00;100498.72;5019912;28;20207;-79
2023/01/07 02:23:48;;;;;;;1.00;1.00;;;;;;;9.30;100.00;100506.53;5014573;28;20203;-80
2023/01/07 02:26:50;;;;;;;1.67;1.07;;;;;;;9.38;100.00;100500.38;5000000;28;20286;-83
2023/01/07 02:29:53;;;;;;;1.07;1.07;;;;;;;9.42;100.00;100500.28;5000453;28;20206;-82
2023/01/07 02:32:32;;;;;;;1.23;1.00;;;;;;;9.32;100.00;100507.38;5000250;28;20229;-82
2023/01/07 02:35:10;;;;;;;1.00;1.00;;;;;;;9.41;100.00;100511.59;5000233;28;20678;-80
2023/01/07 02:37:44;;;;;;;0.90;0.90;;;;;;;9.46;100.00;100516.75;5000243;28;20215;-81
2023/01/07 02:40:16;;;;;;;1.20;1.20;;;;;;;9.57;100.00;100506.19;4999161;28;20207;-81
2023/01/07 02:42:53;;;;;;;1.40;1.30;;;;;;;9.60;100.00;100508.75;4999394;28;20215;-80
2023/01/07 02:45:26;;;;;;;1.60;1.50;;;;;;;9.63;100.00;100498.25;4998451;28;20203;-80
2023/01/07 02:47:56;;;;;;;1.30;1.30;;;;;;;9.63;100.00;100499.16;4998199;28;20564;-80
2023/01/07 02:50:23;;;;;;;1.40;1.30;;;;;;;9.62;100.00;100484.38;4997555;28;20219;-81
2023/01/07 02:52:49;;;;;;;1.80;1.10;;;;;;;9.54;100.00;100487.09;5010400;28;20227;-81
2023/01/07 02:55:19;;;;;;;1.43;1.33;;;;;;;9.60;100.00;100491.38;5003756;28;20203;-81
2023/01/07 02:58:19;;;;;;;1.00;1.00;;;;;;;9.47;100.00;100477.63;4997623;28;20688;-80
2023/01/07 03:01:08;;;;;;;1.03;1.03;;;;;;;9.50;100.00;100471.53;4997327;28;20231;-80
2023/01/07 03:03:50;;;;;;;1.40;1.30;;;;;;;9.56;100.00;100471.44;4998015;28;20243;-79
2023/01/07 03:06:34;;;;;;;1.20;1.10;;;;;;;9.49;100.00;100464.59;4999065;28;20715;-80
2023/01/07 03:09:07;;;;;;;1.40;1.30;;;;;;;9.51;100.00;100460.22;4998025;28;20214;-80
2023/01/07 03:11:41;;;;;;;1.40;1.30;;;;;;;9.50;100.00;100456.75;4997950;28;20211;-80
2023/01/07 03:14:16;;;;;;;1.10;1.10;;;;;;;9.42;100.00;100458.59;4998862;28;20227;-80
2023/01/07 03:16:47;;;;;;;1.50;1.37;;;;;;;9.49;100.00;100451.56;4999609;28;20238;-80
2023/01/07 03:19:17;;;;;;;1.20;1.20;;;;;;;9.38;100.00;100454.31;5010708;28;20202;-84
2023/01/07 03:21:47;;;;;;;0.93;0.93;;;;;;;9.47;100.00;100450.72;5006256;28;20213;-80
2023/01/07 03:24:15;;;;;;;1.10;1.10;;;;;;;9.43;100.00;100451.66;5012596;28;20249;-81
2023/01/07 03:26:44;;;;;;;1.20;1.20;;;;;;;9.48;100.00;100450.69;4999806;28;20227;-81
2023/01/07 03:29:13;;;;;;;1.30;1.10;;;;;;;9.42;100.00;100466.44;4999031;28;20264;-81
2023/01/07 03:31:47;;;;;;;1.33;1.23;;;;;;;9.44;100.00;100461.19;4999408;28;20277;-80
2023/01/07 03:34:20;;;;;;;1.00;1.00;;;;;;;9.46;100.00;100459.44;4998091;28;20282;-82
2023/01/07 03:36:51;;;;;;;1.33;1.23;;;;;;;9.47;100.00;100456.78;4999562;28;20238;-81
2023/01/07 03:39:21;;;;;;;1.10;1.10;;;;;;;9.54;100.00;100461.03;4999143;28;20207;-82
2023/01/07 03:44:41;;;;;;;0.90;0.90;;;;;;;9.53;100.00;100456.72;4974946;28;20210;-82
2023/01/07 03:47:09;;;;;;;1.83;1.10;;;;;;;9.48;100.00;100457.66;4999102;28;20289;-80
2023/01/07 03:49:37;;;;;;;1.03;1.03;;;;;;;9.59;100.00;100452.28;4999148;28;20203;-80
2023/01/07 03:52:04;;;;;;;1.13;1.10;;;;;;;9.63;100.00;100456.56;5005292;28;20729;-81
2023/01/07 03:54:30;;;;;;;1.17;1.17;;;;;;;9.58;100.00;100468.81;5010945;28;20297;-80
2023/01/07 03:56:56;;;;;;;1.60;1.50;;;;;;;9.60;100.00;100456.63;5018562;28;20245;-82
2023/01/07 03:59:23;;;;;;;1.00;1.00;;;;;;;9.60;100.00;100444.44;5018604;28;20277;-82
2023/01/07 04:01:49;;;;;;;1.20;1.10;;;;;;;9.68;100.00;100442.59;5017506;28;20277;-83
2023/01/07 04:04:15;;;;;;;1.27;0.87;;;;;;;9.73;100.00;100443.41;5019102;28;20210;-83
2023/01/07 04:06:43;;;;;;;1.17;1.07;;;;;;;9.74;100.00;100445.09;5017865;28;20227;-83
2023/01/07 04:09:09;;;;;;;1.13;1.13;;;;;;;9.66;100.00;100441.75;5018088;28;20240;-82
2023/01/07 04:11:35;;;;;;;1.20;1.10;;;;;;;9.70;100.00;100440.81;5018493;28;20210;-80
2023/01/07 04:14:02;;;;;;;1.10;1.10;;;;;;;9.77;100.00;100417.25;5018732;28;20233;-82
2023/01/07 04:16:28;;;;;;;1.07;0.93;;;;;;;9.76;100.00;100415.56;5017123;28;20300;-80
2023/01/07 04:18:54;;;;;;;0.80;0.80;;;;;;;9.77;100.00;100412.91;5016521;28;20203;-80
2023/01/07 04:21:21;;;;;;;1.33;0.80;;;;;;;9.79;100.00;100410.28;5016239;28;20211;-80
2023/01/07 04:23:48;;;;;;;0.80;0.80;;;;;;;9.80;100.00;100410.25;5013592;28;20199;-80
2023/01/07 04:26:15;;;;;;;1.67;0.93;;;;;;;9.79;100.00;100405.06;4996880;28;20228;-82
2023/01/07 04:28:41;;;;;;;0.70;0.70;;;;;;;9.78;100.00;100416.38;4996659;28;20627;-80
2023/01/07 04:31:08;;;;;;;0.90;0.90;;;;;;;9.80;100.00;100417.22;4996911;28;20207;-81
2023/01/07 04:33:35;;;;;;;0.83;0.83;;;;;;;9.83;100.00;100427.59;4997255;28;20228;-81
2023/01/07 04:36:01;;;;;;;1.33;0.70;;;;;;;9.77;100.00;100444.19;5022172;23;20231;-80
2023/01/07 04:38:28;;;;;;;0.67;0.67;;;;;;;9.70;100.00;100434.75;5027903;28;20268;-76
2023/01/07 04:40:55;;;;;;;0.80;0.80;;;;;;;9.74;100.00;100432.06;5030619;28;20249;-76
2023/01/07 04:43:22;;;;;;;0.67;0.67;;;;;;;9.73;100.00;100430.34;5030919;28;20711;-76
2023/01/07 04:45:48;;;;;;;0.70;0.70;;;;;;;9.72;100.00;100443.41;5031179;28;20214;-76
2023/01/07 04:48:15;;;;;;;0.70;0.70;;;;;;;9.71;100.00;100445.16;5030839;28;20230;-76
2023/01/07 04:50:42;;;;;;;0.80;0.80;;;;;;;9.71;100.00;100452.09;5030616;28;20744;-76
2023/01/07 04:53:08;;;;;;;0.97;0.73;;;;;;;9.59;100.00;100458.34;5038585;28;20238;-75
2023/01/07 04:55:35;;;;;;;1.07;0.77;;;;;;;9.67;100.00;100458.25;5048317;28;20251;-76
2023/01/07 04:58:02;;;;;;;0.80;0.80;;;;;;;9.71;100.00;100457.31;5050933;28;20640;-75
2023/01/07 05:00:28;;;;;;;0.70;0.70;;;;;;;9.71;100.00;100459.91;5053938;28;20854;-76
2023/01/07 05:02:55;;;;;;;0.60;0.60;;;;;;;9.73;100.00;100468.56;5054275;28;20202;-76
2023/01/07 05:05:21;;;;;;;0.53;0.53;;;;;;;9.63;100.00;100475.69;5054313;28;20205;-76
2023/01/07 05:07:48;;;;;;;0.60;0.60;;;;;;;9.60;100.00;100486.16;5054466;28;20283;-76
2023/01/07 05:10:14;;;;;;;0.50;0.50;;;;;;;9.59;100.00;100488.78;5054042;28;20275;-76
2023/01/07 05:12:41;;;;;;;0.60;0.60;;;;;;;9.57;100.00;100498.34;5054256;28;20270;-75
2023/01/07 05:15:09;;;;;;;1.53;0.50;;;;;;;9.53;100.00;100508.84;5054088;28;20232;-76
2023/01/07 05:17:36;;;;;;;0.70;0.70;;;;;;;9.49;99.92;100512.38;5054075;28;20310;-75
2023/01/07 05:20:02;;;;;;;0.50;0.50;;;;;;;9.46;99.76;100524.56;5053555;28;20202;-76
2023/01/07 05:22:29;;;;;;;0.77;0.50;;;;;;;9.48;99.76;100528.03;5051686;28;20209;-76
2023/01/07 05:24:55;;;;;;;0.63;0.63;;;;;;;9.50;99.57;100534.94;5045916;28;20209;-76
2023/01/07 05:27:21;;;;;;;0.50;0.50;;;;;;;9.50;99.37;100528.84;5053914;28;20283;-76
2023/01/07 05:29:48;;;;;;;2.17;0.60;;;;;;;9.28;99.76;100531.72;5053609;28;20209;-76
2023/01/07 05:32:15;;;;;;;1.43;0.53;;;;;;;9.30;99.86;100526.50;5053584;28;20266;-76
2023/01/07 05:34:42;;;;;;;1.17;0.77;;;;;;;9.25;99.86;100526.53;5053463;28;20225;-76
2023/01/07 05:37:08;;;;;;;0.40;0.40;;;;;;;9.27;99.82;100526.53;5053553;28;20795;-76
2023/01/07 05:39:34;;;;;;;0.60;0.60;;;;;;;9.27;99.56;100535.19;5053765;28;20213;-75
2023/01/07 05:42:01;;;;;;;0.57;0.50;;;;;;;9.27;99.46;100539.56;5053275;28;20626;-76
2023/01/07 05:44:27;;;;;;;1.43;0.60;;;;;;;9.24;99.30;100542.22;5053525;28;20204;-76
2023/01/07 05:46:53;;;;;;;1.70;0.50;;;;;;;9.03;99.18;100553.72;5053460;28;20711;-77
2023/01/07 05:49:21;;;;;;;2.00;0.60;;;;;;;9.04;99.95;100539.81;5053258;28;20243;-76
2023/01/07 05:51:47;;;;;;;1.23;0.70;;;;;;;8.99;100.00;100531.19;5049306;28;20213;-77
2023/01/07 05:54:14;;;;;;;0.70;0.70;;;;;;;8.99;100.00;100526.84;5041714;28;20249;-76
2023/01/07 05:56:40;;;;;;;1.23;0.53;;;;;;;8.95;99.82;100530.38;5051446;28;20224;-75
2023/01/07 05:59:06;;;;;;;0.80;0.60;;;;;;;8.97;99.54;100539.03;5053410;28;20209;-75
2023/01/07 06:01:33;;;;;;;0.77;0.60;;;;;;;8.94;99.37;100544.28;5052913;28;20208;-76
2023/01/07 06:03:59;;;;;;;2.77;0.50;;;;;;;8.92;98.99;100552.09;5053242;28;20668;-76
2023/01/07 06:06:27;;;;;;;0.50;0.50;;;;;;;8.91;98.79;100550.34;5052864;28;20229;-76
2023/01/07 06:08:53;;;;;;;0.50;0.50;;;;;;;8.85;98.67;100553.03;5053402;28;20216;-75
2023/01/07 06:11:20;;;;;;;0.70;0.50;;;;;;;8.86;98.46;100549.56;5051470;28;20622;-76
2023/01/07 06:13:46;;;;;;;2.83;0.60;;;;;;;8.86;97.89;100569.50;5052986;28;20771;-76
2023/01/07 06:16:13;;;;;;;1.20;0.73;;;;;;;8.86;97.81;100569.50;5052858;28;20209;-76
2023/01/07 06:18:40;;;;;;;1.10;0.80;;;;;;;8.86;97.69;100574.72;5052962;28;20209;-76
2023/01/07 06:21:06;;;;;;;0.47;0.47;;;;;;;8.83;97.46;100570.41;5052246;28;20213;-76
2023/01/07 06:23:34;;;;;;;0.67;0.67;;;;;;;8.78;96.97;100577.41;5046539;28;20273;-76
2023/01/07 06:26:00;;;;;;;2.73;0.60;;;;;;;8.78;97.23;100577.41;5045437;28;20619;-76
2023/01/07 06:28:27;;;;;;;0.90;0.80;;;;;;;8.74;96.81;100589.59;5052769;28;20208;-76
2023/01/07 06:30:53;;;;;;;0.73;0.73;;;;;;;8.77;96.93;100587.84;5052491;28;20205;-76
2023/01/07 06:33:20;;;;;;;1.20;1.20;;;;;;;8.64;99.53;100551.50;5052727;28;20212;-76
2023/01/07 06:35:46;;;;;;;1.17;0.80;;;;;;;8.65;99.99;100521.16;5052364;28;20262;-75
2023/01/07 06:38:12;;;;;;;1.00;0.90;;;;;;;8.65;99.37;100523.75;5052489;28;20263;-76
2023/01/07 06:40:40;;;;;;;1.30;0.80;;;;;;;8.65;98.75;100522.00;5052270;28;20415;-76
2023/01/07 06:43:07;;;;;;;1.73;0.90;;;;;;;8.56;98.90;100524.69;5052438;28;20706;-76
2023/01/07 06:45:33;;;;;;;1.10;0.83;;;;;;;8.59;98.95;100516.00;5052424;28;20721;-76
2023/01/07 06:47:59;;;;;;;0.77;0.77;;;;;;;8.53;98.52;100522.97;5052166;28;20780;-76
2023/01/07 06:50:26;;;;;;;1.40;0.73;;;;;;;8.57;98.04;100531.63;5052170;28;20213;-76
2023/01/07 06:52:52;;;;;;;1.20;0.90;;;;;;;8.55;97.88;100542.03;5046465;28;20628;-75
2023/01/07 06:55:18;;;;;;;0.83;0.83;;;;;;;8.51;97.70;100545.53;5043889;28;20229;-75
2023/01/07 06:57:46;;;;;;;1.40;1.07;;;;;;;8.48;97.32;100550.78;5052072;28;20279;-76
2023/01/07 07:00:13;;;;;;;1.93;1.57;;;;;;;8.49;98.47;100526.47;5051935;28;20213;-76
2023/01/07 07:02:40;;;;;;;3.27;1.47;;;;;;;8.48;98.35;100511.78;5051932;28;20205;-76
2023/01/07 07:05:07;;;;;;;1.53;1.43;;;;;;;8.52;98.36;100509.97;5052211;28;20616;-76
2023/01/07 07:07:33;;;;;;;1.47;1.37;;;;;;;8.54;98.70;100513.41;5052057;28;20226;-76
2023/01/07 07:10:03;;;;;;;2.97;1.40;;;;;;;8.51;98.72;100500.47;5051849;28;20201;-76
2023/01/07 07:12:29;;;;;;;1.17;1.17;;;;;;;8.50;98.90;100497.00;5051883;28;20624;-75
2023/01/07 07:14:57;;;;;;;1.70;1.60;;;;;;;8.44;98.73;100491.84;5051928;28;20221;-76
2023/01/07 07:17:23;;;;;;;2.27;2.07;;;;;;;8.39;100.00;100470.19;5051588;28;20225;-76
2023/01/07 07:19:50;;;;;;;2.00;1.80;;;;;;;8.45;100.00;100458.91;5051750;28;20214;-75
2023/01/07 07:22:16;;;;;;;2.10;2.00;;;;;;;8.47;100.00;100457.16;5047361;28;20210;-76
2023/01/07 07:24:42;;;;;;;2.50;2.00;;;;;;;8.39;100.00;100451.13;5041894;28;20206;-76
2023/01/07 07:27:08;;;;;;;4.80;2.30;;;;;;;8.44;100.00;100438.94;5051552;28;20660;-76
2023/01/07 07:29:35;;;;;;;1.83;1.73;;;;;;;8.45;100.00;100422.47;5051645;28;20201;-75
2023/01/07 07:32:03;;;;;;;6.07;2.17;;;;;;;8.40;100.00;100425.06;5051177;28;20225;-76
2023/01/07 07:34:29;;;;;;;1.77;1.67;;;;;;;8.43;100.00;100430.28;5051699;28;20226;-76
2023/01/07 07:36:55;;;;;;;2.50;2.30;;;;;;;8.47;100.00;100436.34;5051379;28;20703;-76
2023/01/07 07:39:22;;;;;;;2.07;1.97;;;;;;;8.47;100.00;100450.19;5051544;28;20687;-76
2023/01/07 07:41:48;;;;;;;2.07;1.97;;;;;;;8.43;100.00;100460.66;5051383;28;20255;-76
2023/01/07 07:44:14;;;;;;;2.20;2.10;;;;;;;8.20;100.00;100446.09;5051457;28;20201;-76
2023/01/07 07:46:41;;;;;;;2.43;2.33;;;;;;;8.26;100.00;100437.38;5051620;28;20229;-75
2023/01/07 07:49:10;;;;;;;14.83;3.03;;;;;;;8.20;100.00;100427.03;5051634;28;20242;-76
2023/01/07 07:51:36;;;;;;;3.97;3.67;;;;;;;8.26;100.00;100400.97;5051227;28;20205;-75
2023/01/07 07:54:03;;;;;;;3.90;3.60;;;;;;;8.43;100.00;100390.44;5040787;28;20245;-76
2023/01/07 07:56:29;;;;;;;3.20;3.00;;;;;;;8.50;100.00;100384.25;5048160;28;20228;-76
2023/01/07 07:58:56;;;;;;;3.13;2.90;;;;;;;8.55;100.00;100374.69;5051113;28;20209;-76
2023/01/07 08:01:22;;;;;;;3.30;3.10;;;;;;;8.69;100.00;100388.38;5051301;28;20213;-76
2023/01/07 08:03:48;;;;;;;3.67;3.37;;;;;;;8.77;100.00;100396.09;5051378;28;20217;-75
2023/01/07 08:06:16;;;;;;;3.23;3.03;;;;;;;8.76;100.00;100399.59;5051346;28;20205;-75
2023/01/07 08:08:42;;;;;;;3.53;3.33;;;;;;;8.83;100.00;100398.63;5051470;28;20205;-75
2023/01/07 08:11:09;;;;;;;3.30;3.10;;;;;;;8.97;100.00;100411.47;5051633;28;20213;-75
2023/01/07 08:13:35;;;;;;;3.20;2.97;;;;;;;9.04;100.00;100428.72;5051244;28;20251;-76
2023/01/07 08:16:02;;;;;;;2.97;2.73;;;;;;;9.05;99.78;100445.22;5051292;28;20221;-76
2023/01/07 08:18:28;;;;;;;3.00;2.70;;;;;;;9.04;99.77;100446.97;5051266;28;20208;-75
2023/01/07 08:20:55;;;;;;;2.77;2.40;;;;;;;9.09;99.64;100446.88;5050957;28;20201;-76
2023/01/07 08:23:23;;;;;;;1.93;1.83;;;;;;;9.00;99.08;100453.09;5045243;28;20213;-75
2023/01/07 08:25:49;;;;;;;2.17;2.07;;;;;;;9.01;99.18;100453.94;5042519;28;20217;-76
2023/01/07 08:28:15;;;;;;;2.10;2.00;;;;;;;9.01;98.89;100462.59;5043412;28;20221;-76
2023/01/07 08:30:42;;;;;;;2.50;2.30;;;;;;;9.02;98.91;100458.25;5022009;28;20240;-76
2023/01/07 08:33:09;;;;;;;2.93;2.73;;;;;;;9.02;98.89;100461.75;5020323;28;20198;-76
2023/01/07 08:35:35;;;;;;;2.43;2.23;;;;;;;8.99;99.70;100461.75;5024415;28;20278;-76
2023/01/07 08:38:03;;;;;;;2.47;2.37;;;;;;;9.04;99.61;100452.16;5025440;28;20236;-76
2023/01/07 08:40:30;;;;;;;3.40;3.07;;;;;;;9.13;99.73;100441.63;5017460;28;20211;-76
2023/01/07 08:42:58;;;;;;;3.93;3.10;;;;;;;9.20;99.56;100447.63;5015095;28;20677;-76
2023/01/07 08:45:25;;;;;;;3.00;2.80;;;;;;;9.29;99.58;100451.84;5015028;28;20673;-76
2023/01/07 08:47:51;;;;;;;2.93;2.73;;;;;;;9.33;99.07;100458.72;5017474;28;20284;-76
2023/01/07 08:50:19;;;;;;;2.77;2.57;;;;;;;9.34;98.61;100463.06;5023274;28;20201;-76
2023/01/07 08:52:46;;;;;;;2.77;2.57;;;;;;;9.43;98.39;100481.16;5027081;28;20206;-76
2023/01/07 08:55:12;;;;;;;2.90;2.43;;;;;;;9.58;97.95;100476.63;5026653;28;20692;-75
2023/01/07 08:57:39;;;;;;;2.90;2.70;;;;;;;9.65;97.37;100488.69;5024299;28;20223;-76
2023/01/07 09:00:07;;;;;;;3.00;2.80;;;;;;;9.76;96.88;100507.66;5027446;28;20233;-76
2023/01/07 09:02:33;;;;;;;2.80;2.60;;;;;;;9.81;96.63;100513.66;5025180;28;20194;-76
2023/01/07 09:05:00;;;;;;;2.60;2.40;;;;;;;9.84;96.34;100517.97;5023451;28;20250;-75
2023/01/07 09:07:26;;;;;;;2.70;2.50;;;;;;;9.85;96.96;100512.72;5023830;28;20225;-76
2023/01/07 09:09:52;;;;;;;2.50;2.30;;;;;;;9.88;96.21;100530.91;5024243;28;20206;-77
2023/01/07 09:12:19;;;;;;;2.47;2.27;;;;;;;9.86;94.79;100543.13;5023722;28;20245;-76
2023/01/07 09:14:46;;;;;;;2.40;2.20;;;;;;;9.97;94.70;100561.22;5021023;28;20594;-75
2023/01/07 09:17:13;;;;;;;2.65;2.45;;;;;;;10.10;93.97;100580.16;5012745;28;20910;-75
2023/01/07 09:19:39;;;;;;;1.87;1.77;;;;;;;10.01;93.07;100586.38;5014270;28;20292;-76
2023/01/07 09:22:05;;;;;;;1.80;1.70;;;;;;;10.11;92.60;100605.38;5028198;28;20736;-76
2023/01/07 09:24:32;;;;;;;2.40;2.20;;;;;;;10.09;92.55;100599.31;5045010;28;20664;-75
2023/01/07 09:26:58;;;;;;;1.90;1.80;;;;;;;10.18;92.53;100614.81;5052516;28;20781;-76
2023/01/07 09:29:25;;;;;;;2.43;1.80;;;;;;;10.21;91.63;100622.59;5043967;28;20561;-76
2023/01/07 09:31:52;;;;;;;2.10;2.00;;;;;;;10.27;91.03;100651.22;5052320;28;20667;-76
2023/01/07 09:34:19;;;;;;;1.93;1.83;;;;;;;10.32;90.82;100648.56;5053084;28;20215;-76
2023/01/07 09:36:45;;;;;;;2.03;1.93;;;;;;;10.34;91.16;100650.25;5052985;28;20736;-75
2023/01/07 09:39:12;;;;;;;1.97;1.87;;;;;;;10.33;91.35;100658.13;5053055;28;20672;-75
2023/01/07 09:41:47;;;;;;;2.27;2.17;;;;;;;10.37;91.13;100646.75;5043585;28;20206;-75
2023/01/07 09:44:24;;;;;;;1.80;1.70;;;;;;;10.42;91.37;100649.28;5033099;28;20202;-75
2023/01/07 09:46:53;;;;;;;2.42;2.30;;;;;;;10.30;90.57;100666.84;5033977;28;20462;-75
2023/01/07 09:49:31;;;;;;;2.00;1.90;;;;;;;10.40;90.92;100643.22;5044471;28;20299;-76
2023/01/07 09:52:04;;;;;;;1.97;1.87;;;;;;;10.30;89.31;100684.25;5053083;28;20263;-75
2023/01/07 09:54:35;;;;;;;1.87;1.77;;;;;;;10.38;89.38;100676.31;5053056;28;20251;-76
2023/01/07 09:57:01;;;;;;;1.90;1.80;;;;;;;10.41;89.95;100663.25;5052979;28;20279;-76
2023/01/07 09:59:28;;;;;;;2.00;1.90;;;;;;;10.33;88.93;100684.22;5044105;28;20264;-76
2023/01/07 10:02:04;;;;;;;2.10;2.00;;;;;;;10.39;89.80;100678.91;5012891;28;20207;-76
2023/01/07 10:04:37;;;;;;;1.93;1.83;;;;;;;10.36;89.17;100684.16;5013068;28;20763;-76
2023/01/07 10:07:14;;;;;;;2.10;2.00;;;;;;;10.42;90.00;100664.94;5013115;28;20233;-76
2023/01/07 10:09:55;;;;;;;1.90;1.80;;;;;;;10.40;89.10;100685.00;5013050;28;20316;-75
2023/01/07 10:12:28;;;;;;;2.20;2.10;;;;;;;10.44;89.00;100687.53;5012743;28;20207;-76
2023/01/07 10:15:07;;;;;;;2.17;2.07;;;;;;;10.40;88.58;100680.63;5012946;28;20230;-76
2023/01/07 10:18:04;;;;;;;1.97;1.50;;;;;;;10.36;87.18;100698.97;5012969;28;20230;-75
2023/01/07 10:20:39;;;;;;;2.07;1.70;;;;;;;10.33;87.44;100689.44;5012983;28;20206;-76
2023/01/07 10:23:12;;;;;;;1.67;1.57;;;;;;;10.51;88.58;100672.66;5012992;28;20265;-75
2023/01/07 10:25:44;;;;;;;1.80;1.70;;;;;;;10.51;88.11;100675.25;5013038;28;20286;-76
2023/01/07 10:28:14;;;;;;;1.60;1.50;;;;;;;10.56;88.07;100669.97;5024076;28;20229;-76
2023/01/07 10:30:45;;;;;;;1.50;1.40;;;;;;;10.61;87.05;100691.66;5043648;28;20630;-75
2023/01/07 10:33:19;;;;;;;1.47;1.37;;;;;;;10.70;87.42;100681.03;5052125;28;20822;-75
2023/01/07 10:35:47;;;;;;;1.30;1.30;;;;;;;10.76;86.88;100677.47;5051483;28;20546;-75
2023/01/07 10:38:19;;;;;;;1.60;1.50;;;;;;;10.80;86.41;100698.31;5051983;28;20237;-76
2023/01/07 10:40:51;;;;;;;0.90;0.90;;;;;;;10.78;83.74;100741.00;5051741;28;20688;-76
2023/01/07 10:43:29;;;;;;;1.30;1.20;;;;;;;10.87;84.11;100736.50;5051800;28;20203;-76
2023/01/07 10:46:16;;;;;;;1.07;1.07;;;;;;;10.84;83.71;100772.22;5052093;28;20252;-76
2023/01/07 10:49:14;;;;;;;1.20;0.70;;;;;;;10.71;81.41;100798.53;5052259;28;20209;-76
2023/01/07 10:52:09;;;;;;;0.93;0.70;;;;;;;10.87;83.17;100786.09;5051273;28;20213;-76
2023/01/07 10:54:47;;;;;;;0.87;0.87;;;;;;;10.94;82.11;100792.09;5052063;28;20215;-75
2023/01/07 10:57:18;;;;;;;1.23;0.70;;;;;;;10.81;80.95;100822.75;5051493;28;20232;-75
2023/01/07 10:59:49;;;;;;;0.70;0.70;;;;;;;11.02;82.22;100795.47;5042866;28;20205;-76
2023/01/07 11:02:19;;;;;;;0.70;0.70;;;;;;;11.00;81.85;100812.03;5051627;28;20706;-76
2023/01/07 11:04:46;;;;;;;0.93;0.73;;;;;;;11.02;81.53;100795.47;5051860;28;20212;-76
2023/01/07 11:07:21;;;;;;;0.73;0.60;;;;;;;11.07;80.80;100811.94;5051679;28;20299;-76
2023/01/07 11:09:48;;;;;;;0.70;0.70;;;;;;;11.01;80.05;100816.41;5051571;28;20205;-77
2023/01/07 11:12:26;;;;;;;0.97;0.70;;;;;;;11.08;79.71;100823.25;5051466;28;20267;-76
2023/01/07 11:14:55;;;;;;;0.60;0.60;;;;;;;10.99;79.10;100855.59;5051253;28;20259;-76
2023/01/07 11:17:31;;;;;;;1.07;0.97;;;;;;;10.95;78.99;100866.97;5051809;28;20665;-76
2023/01/07 11:19:59;;;;;;;1.07;1.07;;;;;;;11.06;79.38;100843.28;5051398;28;20212;-76
2023/01/07 11:22:31;;;;;;;0.60;0.60;;;;;;;11.09;79.19;100843.28;5051485;28;20684;-76
2023/01/07 11:24:59;;;;;;;0.70;0.60;;;;;;;11.09;78.12;100849.34;5051777;28;20206;-76
2023/01/07 11:27:27;;;;;;;0.97;0.80;;;;;;;11.04;78.86;100852.91;5051054;28;20221;-76
2023/01/07 11:29:57;;;;;;;0.57;0.57;;;;;;;11.04;78.21;100851.19;5031084;28;20259;-76
2023/01/07 11:32:26;;;;;;;0.70;0.70;;;;;;;11.05;77.14;100852.88;5031431;28;20214;-75
2023/01/07 11:37:38;;;;;;;0.50;0.40;;;;;;;11.06;79.25;100838.06;5005657;28;20272;-77
2023/01/07 11:40:19;;;;;;;1.03;0.70;;;;;;;11.07;79.71;100811.09;5012759;28;20199;-77
2023/01/07 11:42:50;;;;;;;0.93;0.70;;;;;;;11.12;79.81;100794.44;5012267;28;20264;-78